Stonington, Connecticut
Current Conditions -  °F | °C
As of 6:53 AM on Wednesday 28 Jan 2015 (Local Time) from KWST Reporting Station
Clear Clear  
Wind Chill: -1°   Ceiling: Unl
Heat Index: 13°   Visibility: 10mi
Dew Point:   Wind: 12mph
Humidity: 59%   Direction: 330°NNW
Pressure: 29.88"   Gusts: 21mph
Location:  41.34°N, 71.91°W
Report Text: KWST 281153Z AUTO 33010G18KT 10SM CLR M11/M17 A2988 RMK AO2 SLP120 T11061172 11100 21106 51026 $
Loading
Personal Weather Stations






























Interactive Weather Map New forecast layout! Learn more

10-Day Weather Forecast

Advertisements
Track Severe Weather on mobile